sensor_id;sensor_type;location;lat;lon;timestamp;P1;durP1;ratioP1;P2;durP2;ratioP2
19406;SDS011;9839;53.364;-1.204;2023-06-26T00:01:29;6.10;;;1.25;;
19406;SDS011;9839;53.364;-1.204;2023-06-26T00:03:56;9.80;;;2.00;;
19406;SDS011;9839;53.364;-1.204;2023-06-26T00:06:21;4.43;;;1.75;;
19406;SDS011;9839;53.364;-1.204;2023-06-26T00:08:49;5.47;;;1.35;;
19406;SDS011;9839;53.364;-1.204;2023-06-26T00:11:15;5.80;;;1.80;;
19406;SDS011;9839;53.364;-1.204;2023-06-26T00:13:41;7.80;;;1.35;;
19406;SDS011;9839;53.364;-1.204;2023-06-26T00:16:07;7.28;;;1.10;;
19406;SDS011;9839;53.364;-1.204;2023-06-26T00:18:32;3.42;;;1.42;;
19406;SDS011;9839;53.364;-1.204;2023-06-26T00:20:58;6.68;;;1.15;;
19406;SDS011;9839;53.364;-1.204;2023-06-26T00:23:23;6.43;;;1.10;;
19406;SDS011;9839;53.364;-1.204;2023-06-26T00:25:48;4.82;;;1.10;;
19406;SDS011;9839;53.364;-1.204;2023-06-26T00:28:14;3.00;;;1.10;;
19406;SDS011;9839;53.364;-1.204;2023-06-26T00:30:39;8.52;;;1.42;;
19406;SDS011;9839;53.364;-1.204;2023-06-26T00:33:05;4.50;;;1.10;;
19406;SDS011;9839;53.364;-1.204;2023-06-26T00:35:30;2.65;;;1.05;;
19406;SDS011;9839;53.364;-1.204;2023-06-26T00:37:56;4.75;;;1.08;;
19406;SDS011;9839;53.364;-1.204;2023-06-26T00:40:21;5.28;;;1.15;;
19406;SDS011;9839;53.364;-1.204;2023-06-26T00:42:47;7.00;;;1.30;;
19406;SDS011;9839;53.364;-1.204;2023-06-26T00:45:12;4.90;;;1.23;;
19406;SDS011;9839;53.364;-1.204;2023-06-26T00:47:38;6.38;;;1.33;;
19406;SDS011;9839;53.364;-1.204;2023-06-26T00:50:04;10.23;;;1.35;;
19406;SDS011;9839;53.364;-1.204;2023-06-26T00:52:30;5.65;;;1.42;;
19406;SDS011;9839;53.364;-1.204;2023-06-26T00:54:56;7.72;;;1.42;;
19406;SDS011;9839;53.364;-1.204;2023-06-26T00:57:22;4.60;;;0.95;;
19406;SDS011;9839;53.364;-1.204;2023-06-26T00:59:47;9.20;;;1.88;;
19406;SDS011;9839;53.364;-1.204;2023-06-26T01:02:13;6.22;;;1.75;;
19406;SDS011;9839;53.364;-1.204;2023-06-26T01:04:42;5.53;;;1.58;;
19406;SDS011;9839;53.364;-1.204;2023-06-26T01:07:11;8.90;;;1.33;;
19406;SDS011;9839;53.364;-1.204;2023-06-26T01:09:38;4.47;;;1.70;;
19406;SDS011;9839;53.364;-1.204;2023-06-26T01:12:04;2.20;;;1.25;;
19406;SDS011;9839;53.364;-1.204;2023-06-26T01:14:29;4.18;;;1.45;;
19406;SDS011;9839;53.364;-1.204;2023-06-26T01:16:55;5.38;;;0.98;;
19406;SDS011;9839;53.364;-1.204;2023-06-26T01:19:26;2.83;;;0.90;;
19406;SDS011;9839;53.364;-1.204;2023-06-26T01:24:39;2.85;;;1.05;;
19406;SDS011;9839;53.364;-1.204;2023-06-26T01:27:10;2.80;;;1.17;;
19406;SDS011;9839;53.364;-1.204;2023-06-26T01:29:36;7.10;;;1.45;;
19406;SDS011;9839;53.364;-1.204;2023-06-26T01:32:02;4.90;;;1.10;;
19406;SDS011;9839;53.364;-1.204;2023-06-26T01:34:28;7.93;;;1.00;;
19406;SDS011;9839;53.364;-1.204;2023-06-26T01:36:54;3.58;;;1.20;;
19406;SDS011;9839;53.364;-1.204;2023-06-26T01:39:20;4.95;;;1.20;;
19406;SDS011;9839;53.364;-1.204;2023-06-26T01:41:45;5.05;;;1.15;;
19406;SDS011;9839;53.364;-1.204;2023-06-26T01:55:32;4.05;;;1.33;;
19406;SDS011;9839;53.364;-1.204;2023-06-26T01:57:37;3.55;;;1.73;;
19406;SDS011;9839;53.364;-1.204;2023-06-26T02:00:03;3.72;;;1.40;;
19406;SDS011;9839;53.364;-1.204;2023-06-26T02:02:31;3.20;;;1.30;;
19406;SDS011;9839;53.364;-1.204;2023-06-26T02:04:56;2.30;;;1.23;;
19406;SDS011;9839;53.364;-1.204;2023-06-26T02:07:22;4.18;;;1.27;;
19406;SDS011;9839;53.364;-1.204;2023-06-26T02:09:47;5.32;;;1.13;;
19406;SDS011;9839;53.364;-1.204;2023-06-26T02:12:13;5.47;;;1.60;;
19406;SDS011;9839;53.364;-1.204;2023-06-26T02:14:38;5.28;;;1.20;;
19406;SDS011;9839;53.364;-1.204;2023-06-26T02:17:04;4.82;;;1.13;;
19406;SDS011;9839;53.364;-1.204;2023-06-26T02:19:29;6.88;;;1.25;;
19406;SDS011;9839;53.364;-1.204;2023-06-26T02:21:55;5.55;;;1.50;;
19406;SDS011;9839;53.364;-1.204;2023-06-26T02:24:20;4.93;;;1.65;;
19406;SDS011;9839;53.364;-1.204;2023-06-26T02:26:46;8.40;;;1.40;;
19406;SDS011;9839;53.364;-1.204;2023-06-26T02:29:12;2.40;;;1.17;;
19406;SDS011;9839;53.364;-1.204;2023-06-26T02:31:37;2.58;;;1.20;;
19406;SDS011;9839;53.364;-1.204;2023-06-26T02:34:03;2.45;;;1.10;;
19406;SDS011;9839;53.364;-1.204;2023-06-26T02:36:29;9.73;;;1.20;;
19406;SDS011;9839;53.364;-1.204;2023-06-26T02:38:54;2.03;;;1.20;;
19406;SDS011;9839;53.364;-1.204;2023-06-26T02:41:20;3.83;;;1.45;;
19406;SDS011;9839;53.364;-1.204;2023-06-26T02:43:45;2.83;;;0.93;;
19406;SDS011;9839;53.364;-1.204;2023-06-26T02:46:11;5.22;;;1.35;;
19406;SDS011;9839;53.364;-1.204;2023-06-26T02:48:36;6.90;;;1.55;;
19406;SDS011;9839;53.364;-1.204;2023-06-26T02:51:01;3.50;;;1.30;;
19406;SDS011;9839;53.364;-1.204;2023-06-26T02:53:27;2.22;;;1.45;;
19406;SDS011;9839;53.364;-1.204;2023-06-26T02:55:52;3.90;;;1.40;;
19406;SDS011;9839;53.364;-1.204;2023-06-26T02:58:18;4.00;;;1.80;;
19406;SDS011;9839;53.364;-1.204;2023-06-26T03:00:44;6.28;;;1.85;;
19406;SDS011;9839;53.364;-1.204;2023-06-26T03:03:09;3.70;;;1.40;;
19406;SDS011;9839;53.364;-1.204;2023-06-26T03:05:35;7.30;;;1.48;;
19406;SDS011;9839;53.364;-1.204;2023-06-26T03:08:01;5.45;;;1.30;;
19406;SDS011;9839;53.364;-1.204;2023-06-26T03:10:27;3.10;;;2.35;;
19406;SDS011;9839;53.364;-1.204;2023-06-26T03:12:53;8.32;;;1.63;;
19406;SDS011;9839;53.364;-1.204;2023-06-26T03:15:18;8.63;;;1.92;;
19406;SDS011;9839;53.364;-1.204;2023-06-26T03:17:44;2.85;;;1.60;;
19406;SDS011;9839;53.364;-1.204;2023-06-26T03:20:09;2.72;;;1.27;;
19406;SDS011;9839;53.364;-1.204;2023-06-26T03:22:35;6.93;;;1.63;;
19406;SDS011;9839;53.364;-1.204;2023-06-26T03:25:01;3.60;;;1.40;;
19406;SDS011;9839;53.364;-1.204;2023-06-26T03:27:27;5.00;;;1.63;;
19406;SDS011;9839;53.364;-1.204;2023-06-26T03:29:53;5.20;;;1.92;;
19406;SDS011;9839;53.364;-1.204;2023-06-26T03:32:18;2.42;;;1.40;;
19406;SDS011;9839;53.364;-1.204;2023-06-26T03:34:43;4.03;;;1.52;;
19406;SDS011;9839;53.364;-1.204;2023-06-26T03:37:09;3.10;;;1.45;;
19406;SDS011;9839;53.364;-1.204;2023-06-26T03:39:34;2.83;;;1.23;;
19406;SDS011;9839;53.364;-1.204;2023-06-26T03:42:00;3.42;;;1.42;;
19406;SDS011;9839;53.364;-1.204;2023-06-26T03:44:26;2.25;;;1.20;;
19406;SDS011;9839;53.364;-1.204;2023-06-26T03:46:52;4.43;;;1.45;;
19406;SDS011;9839;53.364;-1.204;2023-06-26T03:49:17;3.58;;;1.17;;
19406;SDS011;9839;53.364;-1.204;2023-06-26T03:51:44;5.97;;;1.60;;
19406;SDS011;9839;53.364;-1.204;2023-06-26T03:54:09;1.83;;;1.20;;
19406;SDS011;9839;53.364;-1.204;2023-06-26T03:56:35;2.53;;;1.63;;
19406;SDS011;9839;53.364;-1.204;2023-06-26T03:59:00;6.85;;;1.80;;
19406;SDS011;9839;53.364;-1.204;2023-06-26T04:01:26;3.30;;;1.33;;
19406;SDS011;9839;53.364;-1.204;2023-06-26T04:03:51;4.90;;;1.50;;
19406;SDS011;9839;53.364;-1.204;2023-06-26T04:06:17;5.82;;;1.50;;
19406;SDS011;9839;53.364;-1.204;2023-06-26T04:08:42;3.75;;;2.08;;
19406;SDS011;9839;53.364;-1.204;2023-06-26T04:11:08;6.97;;;1.45;;
19406;SDS011;9839;53.364;-1.204;2023-06-26T04:13:33;2.78;;;1.73;;
19406;SDS011;9839;53.364;-1.204;2023-06-26T04:15:58;4.47;;;1.77;;
19406;SDS011;9839;53.364;-1.204;2023-06-26T04:18:24;8.27;;;1.55;;
19406;SDS011;9839;53.364;-1.204;2023-06-26T04:21:06;4.07;;;1.58;;
19406;SDS011;9839;53.364;-1.204;2023-06-26T04:23:39;2.92;;;1.83;;
19406;SDS011;9839;53.364;-1.204;2023-06-26T04:26:05;5.15;;;2.22;;
19406;SDS011;9839;53.364;-1.204;2023-06-26T04:28:32;6.90;;;1.63;;
19406;SDS011;9839;53.364;-1.204;2023-06-26T04:30:58;6.72;;;1.50;;
19406;SDS011;9839;53.364;-1.204;2023-06-26T04:33:24;3.17;;;1.23;;
19406;SDS011;9839;53.364;-1.204;2023-06-26T04:35:50;3.35;;;1.40;;
19406;SDS011;9839;53.364;-1.204;2023-06-26T04:38:16;4.70;;;2.13;;
19406;SDS011;9839;53.364;-1.204;2023-06-26T04:40:42;5.85;;;2.22;;
19406;SDS011;9839;53.364;-1.204;2023-06-26T04:43:07;4.50;;;1.80;;
19406;SDS011;9839;53.364;-1.204;2023-06-26T04:45:33;4.18;;;1.60;;
19406;SDS011;9839;53.364;-1.204;2023-06-26T04:47:58;5.07;;;1.60;;
19406;SDS011;9839;53.364;-1.204;2023-06-26T04:50:25;3.47;;;1.75;;
19406;SDS011;9839;53.364;-1.204;2023-06-26T04:52:51;4.53;;;2.05;;
19406;SDS011;9839;53.364;-1.204;2023-06-26T04:55:16;4.53;;;2.17;;
19406;SDS011;9839;53.364;-1.204;2023-06-26T04:57:41;4.30;;;1.65;;
19406;SDS011;9839;53.364;-1.204;2023-06-26T05:00:07;6.30;;;2.08;;
19406;SDS011;9839;53.364;-1.204;2023-06-26T05:02:35;3.30;;;1.80;;
19406;SDS011;9839;53.364;-1.204;2023-06-26T05:05:01;4.78;;;2.00;;
19406;SDS011;9839;53.364;-1.204;2023-06-26T05:07:26;15.77;;;2.30;;
19406;SDS011;9839;53.364;-1.204;2023-06-26T05:09:52;4.47;;;1.80;;
19406;SDS011;9839;53.364;-1.204;2023-06-26T05:12:17;6.40;;;1.95;;
19406;SDS011;9839;53.364;-1.204;2023-06-26T05:14:43;9.48;;;2.17;;
19406;SDS011;9839;53.364;-1.204;2023-06-26T05:17:08;2.67;;;1.40;;
19406;SDS011;9839;53.364;-1.204;2023-06-26T05:19:34;9.05;;;2.10;;
19406;SDS011;9839;53.364;-1.204;2023-06-26T05:22:00;4.57;;;1.70;;
19406;SDS011;9839;53.364;-1.204;2023-06-26T05:24:29;2.95;;;1.50;;
19406;SDS011;9839;53.364;-1.204;2023-06-26T05:26:55;7.00;;;1.63;;
19406;SDS011;9839;53.364;-1.204;2023-06-26T05:29:21;2.85;;;1.45;;
19406;SDS011;9839;53.364;-1.204;2023-06-26T05:31:47;7.00;;;1.92;;
19406;SDS011;9839;53.364;-1.204;2023-06-26T05:34:14;2.55;;;1.50;;
19406;SDS011;9839;53.364;-1.204;2023-06-26T05:36:41;4.57;;;1.73;;
19406;SDS011;9839;53.364;-1.204;2023-06-26T05:39:07;4.03;;;1.42;;
19406;SDS011;9839;53.364;-1.204;2023-06-26T05:41:33;3.60;;;1.65;;
19406;SDS011;9839;53.364;-1.204;2023-06-26T05:43:58;11.38;;;1.70;;
19406;SDS011;9839;53.364;-1.204;2023-06-26T05:46:24;3.45;;;1.40;;
19406;SDS011;9839;53.364;-1.204;2023-06-26T05:48:49;4.65;;;1.35;;
19406;SDS011;9839;53.364;-1.204;2023-06-26T05:51:15;2.58;;;1.50;;
19406;SDS011;9839;53.364;-1.204;2023-06-26T05:53:41;3.58;;;1.30;;
19406;SDS011;9839;53.364;-1.204;2023-06-26T05:56:06;4.22;;;1.58;;
19406;SDS011;9839;53.364;-1.204;2023-06-26T05:58:32;6.43;;;1.60;;
19406;SDS011;9839;53.364;-1.204;2023-06-26T06:00:58;7.47;;;1.70;;
19406;SDS011;9839;53.364;-1.204;2023-06-26T06:03:23;5.35;;;1.80;;
19406;SDS011;9839;53.364;-1.204;2023-06-26T06:05:49;3.58;;;1.80;;
19406;SDS011;9839;53.364;-1.204;2023-06-26T06:08:14;4.45;;;1.75;;
19406;SDS011;9839;53.364;-1.204;2023-06-26T06:10:40;2.65;;;1.95;;
19406;SDS011;9839;53.364;-1.204;2023-06-26T06:13:05;3.30;;;1.60;;
19406;SDS011;9839;53.364;-1.204;2023-06-26T06:15:30;3.50;;;1.60;;
19406;SDS011;9839;53.364;-1.204;2023-06-26T06:17:56;3.13;;;1.75;;
19406;SDS011;9839;53.364;-1.204;2023-06-26T06:20:21;6.40;;;1.55;;
19406;SDS011;9839;53.364;-1.204;2023-06-26T06:22:47;5.43;;;1.60;;
19406;SDS011;9839;53.364;-1.204;2023-06-26T06:25:13;5.20;;;2.00;;
19406;SDS011;9839;53.364;-1.204;2023-06-26T06:27:39;4.05;;;1.45;;
19406;SDS011;9839;53.364;-1.204;2023-06-26T06:30:05;6.72;;;2.00;;
19406;SDS011;9839;53.364;-1.204;2023-06-26T06:32:31;3.55;;;1.67;;
19406;SDS011;9839;53.364;-1.204;2023-06-26T06:34:56;6.30;;;1.90;;
19406;SDS011;9839;53.364;-1.204;2023-06-26T06:37:22;5.40;;;1.70;;
19406;SDS011;9839;53.364;-1.204;2023-06-26T06:39:47;8.98;;;1.83;;
19406;SDS011;9839;53.364;-1.204;2023-06-26T06:42:13;4.50;;;1.55;;
19406;SDS011;9839;53.364;-1.204;2023-06-26T06:44:38;11.68;;;2.53;;
19406;SDS011;9839;53.364;-1.204;2023-06-26T06:47:04;7.50;;;1.77;;
19406;SDS011;9839;53.364;-1.204;2023-06-26T06:49:29;8.40;;;1.80;;
19406;SDS011;9839;53.364;-1.204;2023-06-26T06:51:55;3.38;;;1.45;;
19406;SDS011;9839;53.364;-1.204;2023-06-26T06:54:20;13.15;;;2.40;;
19406;SDS011;9839;53.364;-1.204;2023-06-26T06:56:46;5.13;;;1.35;;
19406;SDS011;9839;53.364;-1.204;2023-06-26T06:59:11;7.50;;;1.80;;
19406;SDS011;9839;53.364;-1.204;2023-06-26T07:01:37;3.40;;;1.33;;
19406;SDS011;9839;53.364;-1.204;2023-06-26T07:04:02;4.95;;;1.80;;
19406;SDS011;9839;53.364;-1.204;2023-06-26T07:06:29;5.30;;;1.58;;
19406;SDS011;9839;53.364;-1.204;2023-06-26T07:08:55;7.20;;;1.75;;
19406;SDS011;9839;53.364;-1.204;2023-06-26T07:11:20;5.70;;;1.42;;
19406;SDS011;9839;53.364;-1.204;2023-06-26T07:13:45;10.05;;;1.95;;
19406;SDS011;9839;53.364;-1.204;2023-06-26T07:16:11;6.18;;;1.70;;
19406;SDS011;9839;53.364;-1.204;2023-06-26T07:18:37;10.27;;;1.90;;
19406;SDS011;9839;53.364;-1.204;2023-06-26T07:21:03;7.20;;;1.27;;
19406;SDS011;9839;53.364;-1.204;2023-06-26T07:23:28;6.32;;;1.55;;
19406;SDS011;9839;53.364;-1.204;2023-06-26T07:25:54;4.60;;;1.20;;
19406;SDS011;9839;53.364;-1.204;2023-06-26T07:28:19;4.97;;;1.35;;
19406;SDS011;9839;53.364;-1.204;2023-06-26T07:30:45;5.57;;;1.40;;
19406;SDS011;9839;53.364;-1.204;2023-06-26T07:33:10;3.45;;;1.60;;
19406;SDS011;9839;53.364;-1.204;2023-06-26T07:35:36;5.13;;;1.35;;
19406;SDS011;9839;53.364;-1.204;2023-06-26T07:38:01;5.28;;;1.48;;
19406;SDS011;9839;53.364;-1.204;2023-06-26T07:40:26;1.85;;;1.15;;
19406;SDS011;9839;53.364;-1.204;2023-06-26T07:42:52;15.80;;;1.77;;
19406;SDS011;9839;53.364;-1.204;2023-06-26T07:45:19;4.05;;;1.20;;
19406;SDS011;9839;53.364;-1.204;2023-06-26T07:47:45;8.30;;;1.77;;
19406;SDS011;9839;53.364;-1.204;2023-06-26T07:50:10;7.88;;;1.42;;
19406;SDS011;9839;53.364;-1.204;2023-06-26T07:52:36;9.15;;;1.33;;
19406;SDS011;9839;53.364;-1.204;2023-06-26T07:55:01;9.25;;;1.55;;
19406;SDS011;9839;53.364;-1.204;2023-06-26T07:57:28;4.38;;;1.25;;
19406;SDS011;9839;53.364;-1.204;2023-06-26T07:59:54;3.75;;;1.17;;
19406;SDS011;9839;53.364;-1.204;2023-06-26T08:02:20;6.82;;;1.83;;
19406;SDS011;9839;53.364;-1.204;2023-06-26T08:04:46;8.57;;;1.30;;
19406;SDS011;9839;53.364;-1.204;2023-06-26T08:07:11;5.95;;;1.27;;
19406;SDS011;9839;53.364;-1.204;2023-06-26T08:09:38;4.72;;;1.10;;
19406;SDS011;9839;53.364;-1.204;2023-06-26T08:12:04;7.82;;;1.67;;
19406;SDS011;9839;53.364;-1.204;2023-06-26T08:14:30;5.68;;;1.60;;
19406;SDS011;9839;53.364;-1.204;2023-06-26T08:16:56;4.25;;;1.05;;
19406;SDS011;9839;53.364;-1.204;2023-06-26T08:19:22;7.97;;;2.10;;
19406;SDS011;9839;53.364;-1.204;2023-06-26T08:21:47;4.25;;;1.23;;
19406;SDS011;9839;53.364;-1.204;2023-06-26T08:24:13;5.95;;;1.27;;
19406;SDS011;9839;53.364;-1.204;2023-06-26T08:26:41;5.85;;;1.45;;
19406;SDS011;9839;53.364;-1.204;2023-06-26T08:29:06;5.78;;;1.45;;
19406;SDS011;9839;53.364;-1.204;2023-06-26T08:31:35;4.57;;;1.15;;
19406;SDS011;9839;53.364;-1.204;2023-06-26T08:34:01;3.97;;;1.52;;
19406;SDS011;9839;53.364;-1.204;2023-06-26T08:36:28;6.03;;;1.15;;
19406;SDS011;9839;53.364;-1.204;2023-06-26T08:38:53;11.80;;;1.58;;
19406;SDS011;9839;53.364;-1.204;2023-06-26T08:41:18;4.70;;;1.30;;
19406;SDS011;9839;53.364;-1.204;2023-06-26T08:43:44;6.53;;;1.17;;
19406;SDS011;9839;53.364;-1.204;2023-06-26T08:46:09;6.85;;;1.23;;
19406;SDS011;9839;53.364;-1.204;2023-06-26T08:48:35;4.05;;;1.20;;
19406;SDS011;9839;53.364;-1.204;2023-06-26T08:51:11;5.60;;;2.28;;
19406;SDS011;9839;53.364;-1.204;2023-06-26T08:53:40;8.90;;;1.77;;
19406;SDS011;9839;53.364;-1.204;2023-06-26T08:56:28;3.35;;;1.20;;
19406;SDS011;9839;53.364;-1.204;2023-06-26T08:58:57;1.85;;;0.85;;
19406;SDS011;9839;53.364;-1.204;2023-06-26T09:01:22;7.95;;;1.27;;
19406;SDS011;9839;53.364;-1.204;2023-06-26T09:03:49;3.22;;;0.82;;
19406;SDS011;9839;53.364;-1.204;2023-06-26T09:06:14;3.05;;;0.75;;
19406;SDS011;9839;53.364;-1.204;2023-06-26T09:08:40;4.00;;;1.65;;
19406;SDS011;9839;53.364;-1.204;2023-06-26T09:11:06;2.80;;;1.30;;
19406;SDS011;9839;53.364;-1.204;2023-06-26T09:13:31;1.40;;;0.90;;
19406;SDS011;9839;53.364;-1.204;2023-06-26T09:15:57;5.55;;;1.10;;
19406;SDS011;9839;53.364;-1.204;2023-06-26T09:18:22;5.65;;;1.20;;
19406;SDS011;9839;53.364;-1.204;2023-06-26T09:20:48;5.47;;;1.33;;
19406;SDS011;9839;53.364;-1.204;2023-06-26T09:23:14;4.30;;;1.17;;
19406;SDS011;9839;53.364;-1.204;2023-06-26T09:25:40;5.07;;;1.40;;
19406;SDS011;9839;53.364;-1.204;2023-06-26T09:28:06;8.60;;;1.33;;
19406;SDS011;9839;53.364;-1.204;2023-06-26T09:30:32;6.40;;;1.33;;
19406;SDS011;9839;53.364;-1.204;2023-06-26T09:32:57;4.85;;;1.25;;
19406;SDS011;9839;53.364;-1.204;2023-06-26T09:35:42;6.32;;;1.30;;
19406;SDS011;9839;53.364;-1.204;2023-06-26T09:38:08;5.22;;;1.00;;
19406;SDS011;9839;53.364;-1.204;2023-06-26T09:40:33;3.20;;;1.17;;
19406;SDS011;9839;53.364;-1.204;2023-06-26T09:43:06;8.70;;;1.10;;
19406;SDS011;9839;53.364;-1.204;2023-06-26T09:45:35;5.72;;;1.00;;
19406;SDS011;9839;53.364;-1.204;2023-06-26T09:48:04;4.80;;;1.23;;
19406;SDS011;9839;53.364;-1.204;2023-06-26T09:50:32;6.47;;;1.08;;
19406;SDS011;9839;53.364;-1.204;2023-06-26T09:53:06;5.80;;;0.90;;
19406;SDS011;9839;53.364;-1.204;2023-06-26T09:55:35;5.55;;;1.10;;
19406;SDS011;9839;53.364;-1.204;2023-06-26T09:58:05;5.65;;;1.08;;
19406;SDS011;9839;53.364;-1.204;2023-06-26T10:00:31;5.18;;;0.98;;
19406;SDS011;9839;53.364;-1.204;2023-06-26T10:02:58;3.33;;;1.05;;
19406;SDS011;9839;53.364;-1.204;2023-06-26T10:05:24;3.63;;;1.05;;
19406;SDS011;9839;53.364;-1.204;2023-06-26T10:07:49;3.55;;;1.13;;
19406;SDS011;9839;53.364;-1.204;2023-06-26T10:10:15;1.40;;;0.77;;
19406;SDS011;9839;53.364;-1.204;2023-06-26T10:12:41;6.45;;;0.88;;
19406;SDS011;9839;53.364;-1.204;2023-06-26T10:15:08;3.42;;;0.80;;
19406;SDS011;9839;53.364;-1.204;2023-06-26T10:17:37;2.85;;;0.82;;
19406;SDS011;9839;53.364;-1.204;2023-06-26T10:20:03;6.90;;;1.08;;
19406;SDS011;9839;53.364;-1.204;2023-06-26T10:22:32;1.92;;;0.88;;
19406;SDS011;9839;53.364;-1.204;2023-06-26T10:24:59;3.78;;;1.10;;
19406;SDS011;9839;53.364;-1.204;2023-06-26T10:27:25;7.38;;;1.25;;
19406;SDS011;9839;53.364;-1.204;2023-06-26T10:29:59;2.85;;;0.85;;
19406;SDS011;9839;53.364;-1.204;2023-06-26T10:32:28;7.38;;;1.33;;
19406;SDS011;9839;53.364;-1.204;2023-06-26T10:34:54;5.03;;;1.15;;
19406;SDS011;9839;53.364;-1.204;2023-06-26T10:37:20;4.72;;;1.08;;
19406;SDS011;9839;53.364;-1.204;2023-06-26T10:42:14;5.65;;;0.90;;
19406;SDS011;9839;53.364;-1.204;2023-06-26T10:44:41;4.40;;;1.20;;
19406;SDS011;9839;53.364;-1.204;2023-06-26T10:47:11;3.85;;;1.00;;
19406;SDS011;9839;53.364;-1.204;2023-06-26T10:49:37;3.38;;;0.88;;
19406;SDS011;9839;53.364;-1.204;2023-06-26T10:52:07;2.72;;;0.88;;
19406;SDS011;9839;53.364;-1.204;2023-06-26T10:54:33;2.90;;;0.70;;
19406;SDS011;9839;53.364;-1.204;2023-06-26T10:56:58;1.77;;;0.63;;
19406;SDS011;9839;53.364;-1.204;2023-06-26T10:59:28;2.92;;;0.80;;
19406;SDS011;9839;53.364;-1.204;2023-06-26T11:04:37;3.83;;;1.20;;
19406;SDS011;9839;53.364;-1.204;2023-06-26T11:07:15;3.53;;;1.20;;
19406;SDS011;9839;53.364;-1.204;2023-06-26T11:12:39;7.10;;;0.98;;
19406;SDS011;9839;53.364;-1.204;2023-06-26T11:15:10;3.60;;;0.90;;
19406;SDS011;9839;53.364;-1.204;2023-06-26T11:17:44;3.42;;;0.88;;
19406;SDS011;9839;53.364;-1.204;2023-06-26T11:20:11;3.03;;;0.73;;
19406;SDS011;9839;53.364;-1.204;2023-06-26T11:22:39;5.38;;;0.75;;
19406;SDS011;9839;53.364;-1.204;2023-06-26T11:25:06;9.35;;;1.10;;
19406;SDS011;9839;53.364;-1.204;2023-06-26T11:30:08;3.63;;;1.08;;
19406;SDS011;9839;53.364;-1.204;2023-06-26T11:32:38;1.83;;;0.82;;
19406;SDS011;9839;53.364;-1.204;2023-06-26T11:35:04;3.58;;;0.73;;
19406;SDS011;9839;53.364;-1.204;2023-06-26T11:37:33;4.35;;;0.95;;
19406;SDS011;9839;53.364;-1.204;2023-06-26T11:39:59;2.22;;;1.00;;
19406;SDS011;9839;53.364;-1.204;2023-06-26T11:42:24;4.28;;;0.80;;
19406;SDS011;9839;53.364;-1.204;2023-06-26T11:44:50;3.00;;;1.08;;
19406;SDS011;9839;53.364;-1.204;2023-06-26T11:47:19;3.05;;;0.85;;
19406;SDS011;9839;53.364;-1.204;2023-06-26T11:49:48;9.27;;;1.13;;
19406;SDS011;9839;53.364;-1.204;2023-06-26T11:52:15;3.60;;;1.02;;
19406;SDS011;9839;53.364;-1.204;2023-06-26T11:54:41;4.88;;;0.60;;
19406;SDS011;9839;53.364;-1.204;2023-06-26T11:57:07;3.00;;;1.00;;
19406;SDS011;9839;53.364;-1.204;2023-06-26T11:59:39;4.78;;;1.30;;
19406;SDS011;9839;53.364;-1.204;2023-06-26T12:02:09;2.95;;;0.90;;
19406;SDS011;9839;53.364;-1.204;2023-06-26T12:04:38;5.00;;;1.00;;
19406;SDS011;9839;53.364;-1.204;2023-06-26T12:07:06;3.92;;;0.82;;
19406;SDS011;9839;53.364;-1.204;2023-06-26T12:09:34;5.47;;;1.00;;
19406;SDS011;9839;53.364;-1.204;2023-06-26T12:12:03;7.50;;;1.20;;
19406;SDS011;9839;53.364;-1.204;2023-06-26T12:14:29;4.00;;;0.80;;
19406;SDS011;9839;53.364;-1.204;2023-06-26T12:16:54;4.10;;;0.90;;
19406;SDS011;9839;53.364;-1.204;2023-06-26T12:19:24;4.85;;;1.45;;
19406;SDS011;9839;53.364;-1.204;2023-06-26T12:21:53;4.88;;;1.38;;
19406;SDS011;9839;53.364;-1.204;2023-06-26T12:24:21;1.98;;;0.90;;
19406;SDS011;9839;53.364;-1.204;2023-06-26T12:26:51;4.90;;;0.80;;
19406;SDS011;9839;53.364;-1.204;2023-06-26T12:29:24;4.75;;;1.00;;
19406;SDS011;9839;53.364;-1.204;2023-06-26T12:31:54;3.03;;;0.80;;
19406;SDS011;9839;53.364;-1.204;2023-06-26T12:34:20;2.05;;;0.77;;
19406;SDS011;9839;53.364;-1.204;2023-06-26T12:36:52;3.42;;;0.90;;
19406;SDS011;9839;53.364;-1.204;2023-06-26T12:39:18;2.83;;;0.73;;
19406;SDS011;9839;53.364;-1.204;2023-06-26T12:42:02;2.80;;;0.93;;
19406;SDS011;9839;53.364;-1.204;2023-06-26T12:44:29;4.95;;;1.15;;
19406;SDS011;9839;53.364;-1.204;2023-06-26T12:46:59;3.90;;;1.13;;
19406;SDS011;9839;53.364;-1.204;2023-06-26T12:49:31;2.55;;;0.75;;
19406;SDS011;9839;53.364;-1.204;2023-06-26T12:52:13;2.42;;;0.80;;
19406;SDS011;9839;53.364;-1.204;2023-06-26T12:54:40;3.45;;;0.90;;
19406;SDS011;9839;53.364;-1.204;2023-06-26T12:57:07;1.77;;;0.70;;
19406;SDS011;9839;53.364;-1.204;2023-06-26T12:59:33;2.83;;;0.90;;
19406;SDS011;9839;53.364;-1.204;2023-06-26T13:02:00;2.97;;;0.85;;
19406;SDS011;9839;53.364;-1.204;2023-06-26T13:04:26;6.70;;;0.90;;
19406;SDS011;9839;53.364;-1.204;2023-06-26T13:06:52;4.32;;;0.80;;
19406;SDS011;9839;53.364;-1.204;2023-06-26T13:09:21;2.10;;;0.73;;
19406;SDS011;9839;53.364;-1.204;2023-06-26T13:11:47;4.63;;;0.80;;
19406;SDS011;9839;53.364;-1.204;2023-06-26T13:14:13;3.25;;;1.20;;
19406;SDS011;9839;53.364;-1.204;2023-06-26T13:16:39;6.07;;;1.30;;
19406;SDS011;9839;53.364;-1.204;2023-06-26T13:19:05;5.47;;;1.48;;
19406;SDS011;9839;53.364;-1.204;2023-06-26T13:21:31;3.08;;;1.02;;
19406;SDS011;9839;53.364;-1.204;2023-06-26T13:23:56;2.00;;;0.77;;
19406;SDS011;9839;53.364;-1.204;2023-06-26T13:26:22;5.05;;;0.90;;
19406;SDS011;9839;53.364;-1.204;2023-06-26T13:28:52;6.10;;;1.20;;
19406;SDS011;9839;53.364;-1.204;2023-06-26T13:31:18;3.97;;;0.82;;
19406;SDS011;9839;53.364;-1.204;2023-06-26T13:33:44;4.22;;;1.30;;
19406;SDS011;9839;53.364;-1.204;2023-06-26T13:36:14;3.55;;;0.90;;
19406;SDS011;9839;53.364;-1.204;2023-06-26T13:38:39;5.63;;;0.85;;
19406;SDS011;9839;53.364;-1.204;2023-06-26T13:41:05;2.38;;;0.88;;
19406;SDS011;9839;53.364;-1.204;2023-06-26T13:43:30;3.15;;;1.00;;
19406;SDS011;9839;53.364;-1.204;2023-06-26T13:45:56;4.05;;;0.80;;
19406;SDS011;9839;53.364;-1.204;2023-06-26T13:48:22;1.58;;;0.70;;
19406;SDS011;9839;53.364;-1.204;2023-06-26T13:50:51;2.28;;;0.98;;
19406;SDS011;9839;53.364;-1.204;2023-06-26T13:53:16;2.63;;;0.82;;
19406;SDS011;9839;53.364;-1.204;2023-06-26T13:55:42;1.58;;;0.63;;
19406;SDS011;9839;53.364;-1.204;2023-06-26T13:58:08;4.10;;;1.10;;
19406;SDS011;9839;53.364;-1.204;2023-06-26T14:00:35;6.40;;;1.00;;
19406;SDS011;9839;53.364;-1.204;2023-06-26T14:03:01;6.38;;;0.80;;
19406;SDS011;9839;53.364;-1.204;2023-06-26T14:05:28;3.95;;;0.80;;
19406;SDS011;9839;53.364;-1.204;2023-06-26T14:07:54;2.80;;;0.85;;
19406;SDS011;9839;53.364;-1.204;2023-06-26T14:10:20;3.75;;;0.70;;
19406;SDS011;9839;53.364;-1.204;2023-06-26T14:12:46;4.45;;;1.10;;
19406;SDS011;9839;53.364;-1.204;2023-06-26T14:15:12;2.95;;;0.90;;
19406;SDS011;9839;53.364;-1.204;2023-06-26T14:17:37;7.60;;;1.00;;
19406;SDS011;9839;53.364;-1.204;2023-06-26T14:20:05;5.35;;;0.80;;
19406;SDS011;9839;53.364;-1.204;2023-06-26T14:22:35;7.15;;;1.10;;
19406;SDS011;9839;53.364;-1.204;2023-06-26T14:25:01;4.13;;;0.95;;
19406;SDS011;9839;53.364;-1.204;2023-06-26T14:27:27;5.60;;;1.33;;
19406;SDS011;9839;53.364;-1.204;2023-06-26T14:29:52;3.15;;;0.85;;
19406;SDS011;9839;53.364;-1.204;2023-06-26T14:32:18;5.05;;;0.98;;
19406;SDS011;9839;53.364;-1.204;2023-06-26T14:34:43;4.03;;;0.88;;
19406;SDS011;9839;53.364;-1.204;2023-06-26T14:37:09;1.83;;;1.20;;
19406;SDS011;9839;53.364;-1.204;2023-06-26T14:39:34;2.53;;;0.80;;
19406;SDS011;9839;53.364;-1.204;2023-06-26T14:42:00;2.38;;;0.70;;
19406;SDS011;9839;53.364;-1.204;2023-06-26T14:44:25;4.75;;;1.08;;
19406;SDS011;9839;53.364;-1.204;2023-06-26T14:46:51;5.20;;;1.10;;
19406;SDS011;9839;53.364;-1.204;2023-06-26T14:49:16;6.22;;;1.20;;
19406;SDS011;9839;53.364;-1.204;2023-06-26T14:51:41;3.20;;;1.00;;
19406;SDS011;9839;53.364;-1.204;2023-06-26T14:54:07;3.65;;;0.90;;
19406;SDS011;9839;53.364;-1.204;2023-06-26T14:56:33;5.03;;;0.77;;
19406;SDS011;9839;53.364;-1.204;2023-06-26T14:58:59;2.13;;;0.90;;
19406;SDS011;9839;53.364;-1.204;2023-06-26T15:01:25;5.32;;;0.80;;
19406;SDS011;9839;53.364;-1.204;2023-06-26T15:03:50;1.63;;;0.70;;
19406;SDS011;9839;53.364;-1.204;2023-06-26T15:06:15;5.75;;;1.17;;
19406;SDS011;9839;53.364;-1.204;2023-06-26T15:08:41;6.75;;;0.90;;